Time;durP1;ratioP1;P1;durP2;ratioP2;P2;SDS_P1;SDS_P2;PMS_P1;PMS_P2;Temp;Humidity;BMP_temperature;BMP_pressure;BME280_temperature;BME280_humidity;BME280_pressure;Samples;Min_cycle;Max_cycle;Signal;HPM_P1;HPM_P2
2023/11/07 00:01:50;;;;;;;7.72;2.75;;;6.50;99.90;;;;;;5056621;28;20247;-78
2023/11/07 00:04:16;;;;;;;6.87;3.50;;;6.50;99.90;;;;;;5073249;28;20697;-78
2023/11/07 00:06:42;;;;;;;7.63;3.33;;;6.50;99.90;;;;;;5056998;28;20180;-78
2023/11/07 00:09:08;;;;;;;3.97;2.07;;;6.50;99.90;;;;;;5056330;28;20420;-78
2023/11/07 00:11:34;;;;;;;4.50;2.30;;;6.40;99.90;;;;;;5057516;28;20507;-78
2023/11/07 00:14:00;;;;;;;3.05;2.25;;;6.40;99.90;;;;;;5071607;28;20219;-78
2023/11/07 00:16:27;;;;;;;4.72;2.05;;;6.30;99.90;;;;;;5076377;28;20177;-78
2023/11/07 00:18:53;;;;;;;3.35;2.13;;;6.20;99.90;;;;;;5077567;28;20510;-78
2023/11/07 00:21:19;;;;;;;5.53;2.17;;;6.20;99.90;;;;;;5077002;28;20175;-79
2023/11/07 00:23:44;;;;;;;3.50;1.90;;;6.20;99.90;;;;;;5076618;28;20223;-78
2023/11/07 00:26:10;;;;;;;6.90;2.60;;;6.10;99.90;;;;;;5075992;28;20290;-80
2023/11/07 00:28:38;;;;;;;4.23;2.80;;;6.10;99.90;;;;;;5092892;28;20190;-78
2023/11/07 00:31:04;;;;;;;2.25;1.60;;;6.10;99.90;;;;;;5093450;28;20180;-78
2023/11/07 00:33:30;;;;;;;2.20;1.77;;;6.10;99.90;;;;;;5075780;28;20199;-78
2023/11/07 00:35:55;;;;;;;3.87;1.93;;;6.10;99.90;;;;;;5080571;28;20208;-79
2023/11/07 00:38:21;;;;;;;2.33;1.63;;;6.00;99.90;;;;;;5059523;28;20203;-78
2023/11/07 00:40:47;;;;;;;3.60;1.60;;;6.00;99.90;;;;;;5096307;28;20188;-78
2023/11/07 00:43:13;;;;;;;6.43;1.92;;;5.90;99.90;;;;;;5096083;28;20211;-78
2023/11/07 00:45:38;;;;;;;3.80;2.27;;;5.90;99.90;;;;;;5097471;28;20171;-78
2023/11/07 00:48:04;;;;;;;6.67;2.20;;;5.90;99.90;;;;;;5097274;28;20169;-78
2023/11/07 00:50:30;;;;;;;5.50;2.00;;;5.90;99.90;;;;;;5097045;28;20329;-78
2023/11/07 00:52:55;;;;;;;3.17;2.03;;;5.80;99.90;;;;;;5079325;28;20441;-78
2023/11/07 00:55:21;;;;;;;3.17;2.03;;;5.80;99.90;;;;;;5078740;28;20189;-78
2023/11/07 00:57:47;;;;;;;3.70;2.05;;;5.70;99.90;;;;;;5097574;28;20172;-78
2023/11/07 01:00:13;;;;;;;6.43;2.00;;;5.70;99.90;;;;;;5099455;27;20230;-79
2023/11/07 01:02:39;;;;;;;2.55;1.85;;;5.60;99.90;;;;;;5117166;28;20526;-78
2023/11/07 01:05:05;;;;;;;3.93;2.07;;;5.60;99.90;;;;;;5116923;28;20171;-78
2023/11/07 01:07:31;;;;;;;2.78;1.95;;;5.60;99.90;;;;;;5099328;28;20239;-78
2023/11/07 01:09:56;;;;;;;4.23;1.57;;;5.50;99.90;;;;;;5083091;28;20257;-78
2023/11/07 01:12:22;;;;;;;2.90;2.03;;;5.50;99.90;;;;;;5099080;28;20422;-78
2023/11/07 01:14:48;;;;;;;4.63;1.73;;;5.40;99.90;;;;;;5117760;28;20521;-78
2023/11/07 01:17:13;;;;;;;3.20;1.90;;;5.40;99.90;;;;;;5117318;28;20178;-80
2023/11/07 01:19:39;;;;;;;3.17;1.80;;;5.40;99.90;;;;;;5117433;28;20305;-78
2023/11/07 01:22:05;;;;;;;2.97;1.80;;;5.40;99.90;;;;;;5117444;28;20214;-78
2023/11/07 01:24:31;;;;;;;1.43;1.30;;;5.40;99.90;;;;;;5082518;28;20646;-78
2023/11/07 01:26:56;;;;;;;6.20;1.50;;;5.40;99.90;;;;;;5117992;28;20174;-78
2023/11/07 01:29:22;;;;;;;3.13;1.80;;;5.40;99.90;;;;;;5065102;28;20271;-79
2023/11/07 01:31:48;;;;;;;3.40;2.63;;;5.30;99.90;;;;;;5099153;28;20186;-79
2023/11/07 01:34:15;;;;;;;2.70;1.60;;;5.30;99.90;;;;;;5098856;28;20194;-80
2023/11/07 01:36:40;;;;;;;5.68;1.80;;;5.30;99.90;;;;;;5098913;28;20332;-78
2023/11/07 01:39:08;;;;;;;3.37;1.63;;;5.30;99.90;;;;;;5099006;28;20198;-79
2023/11/07 01:41:33;;;;;;;7.95;1.73;;;5.30;99.90;;;;;;5117035;28;20193;-79
2023/11/07 01:43:59;;;;;;;5.93;2.27;;;5.30;99.90;;;;;;5116787;28;20261;-79
2023/11/07 01:46:26;;;;;;;3.40;1.60;;;5.40;99.90;;;;;;5098570;28;20170;-79
2023/11/07 01:48:52;;;;;;;3.63;1.90;;;5.30;99.90;;;;;;5081800;28;20178;-79
2023/11/07 01:51:18;;;;;;;4.63;2.00;;;5.40;99.90;;;;;;5082182;28;20187;-79
2023/11/07 01:53:45;;;;;;;7.50;2.63;;;5.40;99.90;;;;;;5099592;28;20175;-79
2023/11/07 01:56:12;;;;;;;6.10;1.70;;;5.30;99.90;;;;;;5098885;28;20422;-79
2023/11/07 01:58:37;;;;;;;3.33;1.65;;;5.40;99.90;;;;;;5098120;28;20208;-79
2023/11/07 02:01:03;;;;;;;3.37;1.60;;;5.40;99.90;;;;;;5081668;28;20215;-78
2023/11/07 02:03:29;;;;;;;2.43;1.73;;;5.50;99.90;;;;;;5098600;28;20449;-79
2023/11/07 02:05:55;;;;;;;3.38;1.80;;;5.60;99.90;;;;;;5098667;28;20409;-78
2023/11/07 02:08:23;;;;;;;3.93;1.73;;;5.80;99.90;;;;;;5098061;28;20189;-79
2023/11/07 02:10:48;;;;;;;1.80;1.70;;;5.90;99.90;;;;;;5098523;28;20399;-78
2023/11/07 02:13:14;;;;;;;2.20;1.63;;;5.90;99.90;;;;;;5098951;28;20174;-78
2023/11/07 02:15:40;;;;;;;3.77;1.60;;;6.00;99.90;;;;;;5099012;28;20417;-78
2023/11/07 02:18:06;;;;;;;5.07;2.00;;;6.10;99.90;;;;;;5101899;28;20556;-79
2023/11/07 02:20:32;;;;;;;1.53;1.43;;;6.20;99.90;;;;;;5085179;28;20759;-79
2023/11/07 02:23:32;;;;;;;3.85;1.90;;;6.10;99.90;;;;;;5102481;28;20455;-78
2023/11/07 02:25:58;;;;;;;3.92;1.40;;;6.10;99.90;;;;;;5115571;28;20199;-79
2023/11/07 02:28:24;;;;;;;2.80;1.50;;;6.00;99.90;;;;;;5120899;28;20633;-79
2023/11/07 02:30:49;;;;;;;2.33;1.83;;;6.00;99.90;;;;;;5085753;28;20925;-78
2023/11/07 02:33:15;;;;;;;2.20;1.53;;;5.90;99.90;;;;;;5085004;28;20176;-78
2023/11/07 02:35:41;;;;;;;2.37;1.50;;;5.90;99.90;;;;;;5102091;28;20183;-78
2023/11/07 02:38:07;;;;;;;3.13;1.87;;;5.90;99.90;;;;;;5102200;28;20501;-78
2023/11/07 02:40:33;;;;;;;2.67;1.92;;;5.90;99.90;;;;;;5120456;28;20397;-78
2023/11/07 02:43:04;;;;;;;4.70;2.00;;;5.80;99.90;;;;;;5101506;28;20600;-79
2023/11/07 02:45:30;;;;;;;2.97;1.80;;;5.80;99.90;;;;;;5120234;28;20529;-78
2023/11/07 02:47:56;;;;;;;3.75;2.03;;;5.80;99.90;;;;;;5085332;28;20185;-78
2023/11/07 02:50:22;;;;;;;2.30;1.80;;;5.80;99.90;;;;;;5085356;28;20510;-78
2023/11/07 02:52:48;;;;;;;7.45;2.15;;;5.70;99.90;;;;;;5119758;28;20512;-78
2023/11/07 02:55:14;;;;;;;3.43;2.27;;;5.70;99.90;;;;;;5120006;28;20213;-78
2023/11/07 02:57:40;;;;;;;4.90;2.00;;;5.70;99.90;;;;;;5067343;28;20428;-78
2023/11/07 03:00:09;;;;;;;4.80;3.13;;;5.60;99.90;;;;;;5119784;28;20408;-78
2023/11/07 03:02:38;;;;;;;5.28;3.35;;;5.60;99.90;;;;;;5101474;28;20211;-79
2023/11/07 03:05:04;;;;;;;5.38;3.65;;;5.50;99.90;;;;;;5102028;28;20250;-79
2023/11/07 03:07:30;;;;;;;7.40;3.80;;;5.50;99.90;;;;;;5119166;28;20202;-78
2023/11/07 03:09:58;;;;;;;6.60;3.65;;;5.40;99.90;;;;;;5101024;28;20182;-78
2023/11/07 03:12:24;;;;;;;7.32;4.07;;;5.40;99.90;;;;;;5101694;28;20178;-79
2023/11/07 03:14:49;;;;;;;10.13;5.07;;;5.40;99.90;;;;;;5101426;28;20181;-79
2023/11/07 03:17:15;;;;;;;11.87;5.80;;;5.40;99.90;;;;;;5119097;28;20417;-78
2023/11/07 03:19:41;;;;;;;12.73;5.97;;;5.40;99.90;;;;;;5118980;28;20225;-78
2023/11/07 03:22:07;;;;;;;16.83;8.10;;;5.30;99.90;;;;;;5119068;28;20207;-78
2023/11/07 03:24:32;;;;;;;14.47;7.30;;;5.30;99.90;;;;;;5118738;28;20178;-78
2023/11/07 03:26:58;;;;;;;7.50;4.07;;;5.30;99.90;;;;;;5100591;28;20179;-78
2023/11/07 03:29:24;;;;;;;8.15;3.75;;;5.50;99.90;;;;;;5117217;28;20412;-79
2023/11/07 03:31:50;;;;;;;4.20;2.50;;;5.60;99.90;;;;;;5099901;28;20640;-78
2023/11/07 03:34:16;;;;;;;5.07;2.47;;;5.70;99.90;;;;;;5101621;28;20181;-78
2023/11/07 03:36:42;;;;;;;5.90;2.95;;;5.70;99.90;;;;;;5100840;28;20167;-78
2023/11/07 03:39:07;;;;;;;7.40;3.10;;;5.70;99.90;;;;;;5119395;28;20175;-78
2023/11/07 03:41:33;;;;;;;7.07;3.10;;;5.70;99.90;;;;;;5119300;28;20516;-78
2023/11/07 03:43:58;;;;;;;5.83;2.83;;;5.60;99.90;;;;;;5084186;28;20269;-78
2023/11/07 03:46:24;;;;;;;5.70;3.07;;;5.60;99.90;;;;;;5118967;28;20178;-78
2023/11/07 03:48:50;;;;;;;4.53;2.40;;;5.60;99.90;;;;;;5119180;28;20261;-79
2023/11/07 03:51:15;;;;;;;7.00;2.27;;;5.60;99.90;;;;;;5091935;28;20570;-78
2023/11/07 03:53:41;;;;;;;3.50;2.20;;;5.70;99.90;;;;;;5081088;28;20191;-78
2023/11/07 03:56:09;;;;;;;4.10;3.00;;;5.70;99.90;;;;;;5086625;28;20267;-78
2023/11/07 03:58:34;;;;;;;3.72;2.78;;;5.70;99.90;;;;;;5100043;28;20616;-78
2023/11/07 04:01:00;;;;;;;4.67;2.90;;;5.70;99.90;;;;;;5080237;28;20325;-78
2023/11/07 04:03:26;;;;;;;3.37;2.80;;;5.70;99.90;;;;;;5096931;28;20200;-78
2023/11/07 04:05:53;;;;;;;5.00;3.50;;;5.70;99.90;;;;;;5096570;28;20593;-78
2023/11/07 04:08:19;;;;;;;5.43;3.45;;;5.60;99.90;;;;;;5096751;28;20199;-78
2023/11/07 04:10:45;;;;;;;7.25;3.65;;;5.60;99.90;;;;;;5096742;28;20180;-78
2023/11/07 04:13:11;;;;;;;6.03;3.80;;;5.60;99.90;;;;;;5096549;28;20787;-79
2023/11/07 04:15:36;;;;;;;6.20;3.73;;;5.60;99.90;;;;;;5079674;28;20204;-78
2023/11/07 04:18:04;;;;;;;4.73;3.60;;;5.50;99.90;;;;;;5098410;28;20262;-78
2023/11/07 04:20:30;;;;;;;3.80;3.25;;;5.50;99.90;;;;;;5097816;28;20179;-78
2023/11/07 04:22:56;;;;;;;4.93;3.10;;;5.60;99.90;;;;;;5079500;28;20212;-79
2023/11/07 04:25:21;;;;;;;9.37;3.27;;;5.60;99.90;;;;;;5097460;28;20178;-78
2023/11/07 04:27:47;;;;;;;4.07;3.13;;;5.70;99.90;;;;;;5096476;28;20224;-78
2023/11/07 04:30:13;;;;;;;4.43;2.50;;;5.70;99.90;;;;;;5079889;28;20180;-78
2023/11/07 04:32:39;;;;;;;4.60;3.80;;;5.80;99.90;;;;;;5079592;28;20250;-78
2023/11/07 04:35:06;;;;;;;6.53;3.63;;;5.80;99.90;;;;;;5097382;28;20407;-78
2023/11/07 04:37:32;;;;;;;3.95;3.30;;;5.90;99.90;;;;;;5097267;28;20182;-78
2023/11/07 04:39:57;;;;;;;3.97;2.38;;;6.00;99.90;;;;;;5078738;28;20615;-78
2023/11/07 04:42:23;;;;;;;6.20;3.03;;;6.10;99.90;;;;;;5059576;28;20289;-78
2023/11/07 04:44:50;;;;;;;3.63;2.67;;;6.20;99.90;;;;;;5075363;28;20250;-78
2023/11/07 04:47:16;;;;;;;4.00;2.58;;;6.30;99.90;;;;;;5076811;28;20176;-79
2023/11/07 04:49:42;;;;;;;7.93;3.05;;;6.30;99.90;;;;;;5076218;28;20177;-78
2023/11/07 04:52:08;;;;;;;3.33;2.70;;;6.40;99.90;;;;;;5076763;28;20447;-78
2023/11/07 04:54:34;;;;;;;4.90;3.07;;;6.50;99.90;;;;;;5076540;28;20184;-79
2023/11/07 04:56:59;;;;;;;4.60;3.20;;;6.60;99.90;;;;;;5076111;28;20185;-79
2023/11/07 04:59:25;;;;;;;3.60;2.73;;;6.60;99.90;;;;;;5059029;28;20514;-78
2023/11/07 05:01:52;;;;;;;4.40;3.00;;;6.70;99.90;;;;;;5093424;28;20302;-79
2023/11/07 05:04:19;;;;;;;5.25;2.53;;;6.80;99.90;;;;;;5079436;28;20194;-78
2023/11/07 05:06:46;;;;;;;5.60;2.05;;;6.90;99.90;;;;;;5096780;28;20241;-78
2023/11/07 05:09:12;;;;;;;9.40;1.90;;;7.00;99.90;;;;;;5095775;28;20180;-79
2023/11/07 05:11:39;;;;;;;4.80;2.05;;;7.10;99.90;;;;;;5095450;28;20270;-78
2023/11/07 05:14:07;;;;;;;3.75;1.45;;;7.10;99.90;;;;;;5100679;28;20703;-79
2023/11/07 05:16:37;;;;;;;2.15;1.67;;;7.20;99.90;;;;;;5099009;28;20194;-79
2023/11/07 05:19:03;;;;;;;2.88;1.33;;;7.30;99.90;;;;;;5099275;28;20175;-79
2023/11/07 05:21:29;;;;;;;2.15;1.92;;;7.30;99.90;;;;;;5082306;28;20356;-79
2023/11/07 05:23:55;;;;;;;2.53;1.70;;;7.30;99.90;;;;;;5099267;28;20210;-79
2023/11/07 05:26:22;;;;;;;1.97;1.57;;;7.40;99.90;;;;;;5098683;28;20494;-79
2023/11/07 05:28:48;;;;;;;3.97;1.80;;;7.50;99.90;;;;;;5116703;28;20185;-78
2023/11/07 05:31:14;;;;;;;3.73;1.93;;;7.40;99.90;;;;;;5116561;28;20182;-79
2023/11/07 05:33:41;;;;;;;2.50;1.80;;;7.40;99.90;;;;;;5082021;28;20516;-79
2023/11/07 05:36:07;;;;;;;3.58;2.03;;;7.40;99.90;;;;;;5099130;28;20538;-79
2023/11/07 05:38:34;;;;;;;3.50;1.88;;;7.40;99.90;;;;;;5117335;28;20178;-79
2023/11/07 05:40:59;;;;;;;3.40;1.70;;;7.50;99.90;;;;;;5098231;28;20183;-79
2023/11/07 05:43:25;;;;;;;4.07;2.50;;;7.50;99.90;;;;;;5116927;28;20263;-79
2023/11/07 05:45:51;;;;;;;1.60;1.37;;;7.60;99.90;;;;;;5116026;28;20176;-79
2023/11/07 05:48:18;;;;;;;3.03;1.60;;;7.60;99.90;;;;;;5098920;28;20471;-79
2023/11/07 05:50:44;;;;;;;2.67;2.00;;;7.60;99.90;;;;;;5082794;28;20417;-79
2023/11/07 05:53:09;;;;;;;2.70;1.60;;;7.50;99.90;;;;;;5085618;28;20265;-78
2023/11/07 05:55:35;;;;;;;1.50;1.33;;;7.60;99.90;;;;;;5085959;28;20278;-79
2023/11/07 05:58:00;;;;;;;3.00;1.50;;;7.50;99.90;;;;;;5069062;28;20585;-79
2023/11/07 06:00:26;;;;;;;1.57;1.23;;;7.50;99.90;;;;;;5085471;28;20319;-79
2023/11/07 06:02:52;;;;;;;4.73;1.53;;;7.50;99.90;;;;;;5102383;28;20282;-79
2023/11/07 06:05:20;;;;;;;1.40;1.17;;;7.50;99.90;;;;;;5085691;28;20178;-79
2023/11/07 06:07:46;;;;;;;1.75;1.20;;;7.40;99.90;;;;;;5101710;28;20176;-78
2023/11/07 06:10:12;;;;;;;4.38;1.60;;;7.40;99.90;;;;;;5121202;28;20198;-79
2023/11/07 06:12:37;;;;;;;2.47;1.83;;;7.50;99.90;;;;;;5102490;28;20201;-79
2023/11/07 06:15:04;;;;;;;2.87;1.90;;;7.40;99.90;;;;;;5086060;28;20231;-76
2023/11/07 06:17:29;;;;;;;3.15;2.95;;;7.50;99.90;;;;;;5068984;28;20428;-79
2023/11/07 06:19:55;;;;;;;4.67;1.50;;;7.50;99.90;;;;;;5101887;28;20168;-79
2023/11/07 06:22:21;;;;;;;3.40;1.77;;;7.50;99.90;;;;;;5102128;28;20210;-78
2023/11/07 06:24:46;;;;;;;2.13;1.60;;;7.50;99.90;;;;;;5120680;28;20202;-79
2023/11/07 06:27:12;;;;;;;3.73;1.60;;;7.50;99.90;;;;;;5120624;28;20172;-79
2023/11/07 06:29:46;;;;;;;2.13;1.50;;;7.50;99.90;;;;;;5085879;28;20177;-79
2023/11/07 06:32:13;;;;;;;1.85;1.60;;;7.60;99.90;;;;;;5120274;28;20156;-78
2023/11/07 06:34:40;;;;;;;1.70;1.40;;;7.60;99.90;;;;;;5101199;28;20185;-79
2023/11/07 06:37:06;;;;;;;2.90;1.40;;;7.60;99.90;;;;;;5120366;28;20172;-79
2023/11/07 06:39:32;;;;;;;1.70;1.30;;;7.60;99.90;;;;;;5101764;28;20176;-81
2023/11/07 06:41:58;;;;;;;2.30;1.50;;;7.70;99.90;;;;;;5103158;27;20211;-78
2023/11/07 06:44:24;;;;;;;1.33;1.23;;;7.70;99.90;;;;;;5140896;27;20253;-78
2023/11/07 06:46:51;;;;;;;1.80;1.07;;;7.60;99.90;;;;;;5140517;27;20270;-78
2023/11/07 06:49:17;;;;;;;1.85;1.05;;;7.70;99.90;;;;;;5140573;27;20175;-78
2023/11/07 06:51:43;;;;;;;10.50;1.52;;;7.60;99.90;;;;;;5121940;27;20595;-78
2023/11/07 06:54:09;;;;;;;1.70;1.23;;;7.60;99.90;;;;;;5105048;27;20230;-78
2023/11/07 06:56:34;;;;;;;1.43;1.13;;;7.60;99.90;;;;;;5121805;27;20174;-80
2023/11/07 06:59:00;;;;;;;1.70;1.13;;;7.60;99.90;;;;;;5140691;27;20393;-80
2023/11/07 07:01:28;;;;;;;2.10;1.17;;;7.60;99.90;;;;;;5121899;27;20222;-80
2023/11/07 07:03:54;;;;;;;1.67;1.17;;;7.60;99.90;;;;;;5138825;27;20631;-80
2023/11/07 07:06:23;;;;;;;1.40;0.95;;;7.50;99.90;;;;;;5140434;27;20177;-80
2023/11/07 07:08:50;;;;;;;2.45;1.30;;;7.40;99.90;;;;;;5140116;27;20178;-80
2023/11/07 07:11:16;;;;;;;1.25;1.10;;;7.40;99.90;;;;;;5121912;27;20171;-80
2023/11/07 07:13:41;;;;;;;1.40;1.30;;;7.40;99.90;;;;;;5121419;27;20539;-80
2023/11/07 07:16:08;;;;;;;2.50;1.27;;;7.40;99.90;;;;;;5121516;27;20409;-80
2023/11/07 07:18:34;;;;;;;1.88;1.45;;;7.30;99.90;;;;;;5121840;27;20166;-81
2023/11/07 07:21:00;;;;;;;3.05;1.80;;;7.30;99.90;;;;;;5121435;27;20174;-80
2023/11/07 07:23:25;;;;;;;3.47;2.90;;;7.30;99.90;;;;;;5104384;27;20285;-80
2023/11/07 07:25:53;;;;;;;7.40;2.83;;;7.30;99.90;;;;;;5091624;27;20205;-80
2023/11/07 07:28:20;;;;;;;4.45;3.72;;;7.30;99.90;;;;;;5099035;28;20176;-80
2023/11/07 07:30:47;;;;;;;4.63;3.38;;;7.20;99.90;;;;;;5098927;28;20168;-80
2023/11/07 07:33:15;;;;;;;6.35;3.05;;;7.30;99.90;;;;;;5088254;28;20187;-80
2023/11/07 07:35:40;;;;;;;3.60;2.38;;;7.20;99.90;;;;;;5098639;28;20524;-80
2023/11/07 07:38:09;;;;;;;2.10;1.90;;;7.30;99.90;;;;;;5098850;28;20172;-80
2023/11/07 07:40:34;;;;;;;2.30;1.70;;;7.30;99.90;;;;;;5098879;28;20213;-80
2023/11/07 07:43:08;;;;;;;1.77;1.60;;;7.30;99.90;;;;;;5098396;28;20663;-78
2023/11/07 07:45:35;;;;;;;2.63;1.67;;;7.40;99.90;;;;;;5098703;28;20184;-79
2023/11/07 07:48:04;;;;;;;2.42;1.10;;;7.60;99.90;;;;;;5106595;28;20528;-78
2023/11/07 07:50:30;;;;;;;2.75;1.70;;;7.70;99.90;;;;;;5118348;28;20172;-82
2023/11/07 07:52:58;;;;;;;1.40;1.30;;;7.70;99.90;;;;;;5083064;28;20194;-78
2023/11/07 07:55:27;;;;;;;1.45;1.27;;;7.80;99.90;;;;;;5099786;28;20274;-78
2023/11/07 07:58:00;;;;;;;1.48;1.30;;;7.70;99.90;;;;;;5117559;28;20189;-80
2023/11/07 08:00:32;;;;;;;2.38;1.38;;;7.80;99.90;;;;;;5118474;28;20254;-79
2023/11/07 08:03:06;;;;;;;1.67;1.27;;;7.80;99.90;;;;;;5099466;28;20202;-79
2023/11/07 08:05:39;;;;;;;2.67;0.90;;;7.90;99.90;;;;;;5084238;28;20581;-79
2023/11/07 08:08:08;;;;;;;2.40;1.10;;;8.00;99.90;;;;;;5118022;28;20171;-79
2023/11/07 08:10:34;;;;;;;1.55;1.17;;;8.00;99.90;;;;;;5117336;28;20202;-79
2023/11/07 08:13:00;;;;;;;4.47;1.40;;;8.10;99.90;;;;;;5099551;28;20279;-79
2023/11/07 08:15:26;;;;;;;1.10;1.00;;;8.20;99.90;;;;;;5099478;28;20428;-79
2023/11/07 08:17:53;;;;;;;1.95;0.90;;;8.10;99.90;;;;;;5117568;28;20172;-79
2023/11/07 08:20:22;;;;;;;2.58;1.05;;;8.20;99.90;;;;;;5117957;28;20168;-79
2023/11/07 08:22:49;;;;;;;2.45;1.10;;;8.10;99.90;;;;;;5099484;28;20199;-79
2023/11/07 08:25:17;;;;;;;1.20;0.90;;;8.20;99.90;;;;;;5117647;28;20180;-79
2023/11/07 08:27:48;;;;;;;1.80;1.20;;;8.10;99.90;;;;;;5099819;28;20662;-79
2023/11/07 08:30:17;;;;;;;2.15;1.15;;;8.10;99.90;;;;;;5100898;28;20163;-79
2023/11/07 08:32:43;;;;;;;2.00;1.10;;;8.10;99.90;;;;;;5099612;28;20628;-79
2023/11/07 08:35:15;;;;;;;1.25;0.95;;;8.10;99.90;;;;;;5117943;28;20190;-79
2023/11/07 08:37:41;;;;;;;1.25;1.05;;;8.20;99.90;;;;;;5099485;28;20221;-79
2023/11/07 08:40:08;;;;;;;6.05;1.65;;;8.20;99.90;;;;;;5099452;28;20198;-79
2023/11/07 08:42:35;;;;;;;3.83;1.80;;;8.30;99.90;;;;;;5117133;28;20233;-79
2023/11/07 08:45:01;;;;;;;1.27;1.10;;;8.40;99.90;;;;;;5099258;28;20180;-79
2023/11/07 08:47:28;;;;;;;1.37;1.03;;;8.50;99.90;;;;;;5117156;28;20198;-79
2023/11/07 08:49:57;;;;;;;3.83;1.08;;;8.70;99.90;;;;;;5117369;28;20230;-79
2023/11/07 08:52:24;;;;;;;1.92;0.80;;;8.80;99.90;;;;;;5099096;28;20202;-79
2023/11/07 08:54:51;;;;;;;0.90;0.70;;;8.90;99.90;;;;;;5117266;28;20564;-79
2023/11/07 08:57:17;;;;;;;1.52;0.82;;;9.00;99.90;;;;;;5098726;28;20206;-79
2023/11/07 08:59:44;;;;;;;2.47;1.20;;;9.10;99.90;;;;;;5098717;28;20207;-79
2023/11/07 09:02:11;;;;;;;1.48;1.08;;;9.20;99.90;;;;;;5116699;28;20223;-79
2023/11/07 09:04:37;;;;;;;2.45;0.88;;;9.30;99.90;;;;;;5099294;28;20206;-79
2023/11/07 09:07:03;;;;;;;1.95;1.15;;;9.40;99.90;;;;;;5098973;28;20240;-79
2023/11/07 09:09:30;;;;;;;1.92;1.05;;;9.50;99.90;;;;;;5098991;28;20254;-79
2023/11/07 09:11:56;;;;;;;3.72;1.40;;;9.60;99.90;;;;;;5116885;28;20190;-79
2023/11/07 09:14:21;;;;;;;2.90;0.87;;;9.90;99.90;;;;;;5098831;28;20184;-79
2023/11/07 09:16:48;;;;;;;1.87;0.90;;;10.20;99.90;;;;;;5081978;28;20405;-79
2023/11/07 09:19:13;;;;;;;4.53;0.93;;;10.40;99.90;;;;;;5082263;28;20673;-79
2023/11/07 09:21:39;;;;;;;1.47;1.00;;;10.40;99.90;;;;;;5081690;28;20421;-79
2023/11/07 09:24:05;;;;;;;1.93;0.80;;;10.50;99.90;;;;;;5098807;28;20188;-80
2023/11/07 09:26:31;;;;;;;2.05;0.90;;;10.60;99.90;;;;;;5116233;28;20274;-80
2023/11/07 09:28:58;;;;;;;2.80;0.97;;;10.70;99.90;;;;;;5116503;28;20211;-80
2023/11/07 09:31:24;;;;;;;6.80;1.15;;;10.80;99.90;;;;;;5116921;28;20538;-80
2023/11/07 09:33:49;;;;;;;1.50;0.80;;;10.90;99.90;;;;;;5098300;28;20187;-80
2023/11/07 09:36:15;;;;;;;2.80;1.00;;;10.80;99.90;;;;;;5098944;28;20258;-80
2023/11/07 09:38:42;;;;;;;3.40;1.77;;;10.80;99.90;;;;;;5116720;28;20184;-80
2023/11/07 09:41:07;;;;;;;3.00;1.25;;;10.90;99.90;;;;;;5116675;28;20172;-80
2023/11/07 09:43:33;;;;;;;4.40;0.90;;;10.90;99.90;;;;;;5098148;28;20583;-80
2023/11/07 09:46:01;;;;;;;1.63;1.10;;;10.90;99.90;;;;;;5116351;28;20552;-79
2023/11/07 09:48:28;;;;;;;3.15;0.90;;;11.00;99.90;;;;;;5098842;28;20183;-80
2023/11/07 09:50:56;;;;;;;3.03;1.08;;;11.00;99.90;;;;;;5097572;28;20186;-79
2023/11/07 09:53:23;;;;;;;1.60;1.17;;;11.10;99.90;;;;;;5116088;28;20180;-80
2023/11/07 09:55:50;;;;;;;2.33;1.25;;;11.30;99.90;;;;;;5097326;28;20196;-80
2023/11/07 09:58:23;;;;;;;1.52;0.80;;;11.40;99.90;;;;;;5116674;28;20180;-79
2023/11/07 10:00:50;;;;;;;1.77;0.98;;;11.50;99.90;;;;;;5115985;28;20302;-79
2023/11/07 10:03:17;;;;;;;2.97;1.15;;;11.40;99.90;;;;;;5116401;28;20199;-79
2023/11/07 10:05:47;;;;;;;1.70;0.80;;;11.40;99.90;;;;;;5097472;28;20620;-80
2023/11/07 10:08:13;;;;;;;1.23;1.00;;;11.50;99.90;;;;;;5116631;28;20176;-80
2023/11/07 10:10:39;;;;;;;2.77;1.00;;;11.60;99.90;;;;;;5117598;28;20183;-80
2023/11/07 10:13:12;;;;;;;2.50;0.80;;;11.60;99.90;;;;;;5081627;28;20187;-80
2023/11/07 10:15:38;;;;;;;3.15;0.93;;;11.70;99.90;;;;;;5116052;28;20620;-79
2023/11/07 10:18:06;;;;;;;2.40;0.93;;;11.60;99.90;;;;;;5097524;28;20176;-79
2023/11/07 10:20:33;;;;;;;1.60;1.00;;;11.60;99.90;;;;;;5116412;28;20413;-79
2023/11/07 10:23:00;;;;;;;1.58;0.70;;;11.60;99.90;;;;;;5115295;28;20264;-79
2023/11/07 10:25:31;;;;;;;3.03;0.90;;;11.60;99.90;;;;;;5097963;28;20542;-80
2023/11/07 10:28:05;;;;;;;3.35;0.95;;;11.60;99.90;;;;;;5115900;28;20413;-79
2023/11/07 10:30:45;;;;;;;2.45;1.23;;;11.70;99.90;;;;;;5115861;28;20197;-79
2023/11/07 10:33:25;;;;;;;3.13;0.87;;;11.80;99.90;;;;;;5115963;28;20159;-79
2023/11/07 10:35:54;;;;;;;2.88;1.33;;;12.00;99.90;;;;;;5116164;28;20397;-79
2023/11/07 10:38:20;;;;;;;1.95;0.93;;;12.10;99.90;;;;;;5117233;28;20189;-80
2023/11/07 10:40:47;;;;;;;1.70;1.10;;;12.20;99.90;;;;;;5119662;28;20720;-80
2023/11/07 10:43:14;;;;;;;3.08;0.80;;;12.40;99.90;;;;;;5119185;28;20207;-80
2023/11/07 10:45:41;;;;;;;1.70;0.82;;;12.30;99.90;;;;;;5101288;28;20567;-79
2023/11/07 10:48:08;;;;;;;1.60;0.95;;;12.40;99.90;;;;;;5101257;28;20183;-79
2023/11/07 10:50:35;;;;;;;3.45;0.82;;;12.40;99.90;;;;;;5100707;28;20206;-80
2023/11/07 10:53:01;;;;;;;2.17;0.90;;;12.60;99.90;;;;;;5118211;28;20214;-79
2023/11/07 10:55:27;;;;;;;1.10;0.67;;;12.60;99.90;;;;;;5118864;28;20405;-79
2023/11/07 10:57:59;;;;;;;1.97;0.90;;;12.90;99.90;;;;;;5118407;28;20417;-79
2023/11/07 11:00:30;;;;;;;3.87;0.90;;;13.20;99.90;;;;;;5097011;28;20249;-79
2023/11/07 11:03:03;;;;;;;2.17;0.93;;;13.30;99.90;;;;;;5097377;28;20458;-79
2023/11/07 11:05:29;;;;;;;1.40;0.80;;;13.50;99.90;;;;;;5098640;28;20862;-80
2023/11/07 11:07:59;;;;;;;3.60;0.90;;;13.90;99.90;;;;;;5097967;28;20410;-80
2023/11/07 11:10:30;;;;;;;3.50;0.83;;;14.10;99.90;;;;;;5098677;28;20442;-79
2023/11/07 11:12:56;;;;;;;4.50;1.50;;;14.20;99.90;;;;;;5097379;28;20407;-80
2023/11/07 11:15:23;;;;;;;1.50;0.80;;;14.10;99.90;;;;;;5098473;28;20475;-79
2023/11/07 11:17:55;;;;;;;2.23;0.83;;;13.90;99.90;;;;;;5098284;28;20764;-80
2023/11/07 11:20:31;;;;;;;4.20;0.80;;;13.90;99.90;;;;;;5098152;28;20394;-79
2023/11/07 11:23:10;;;;;;;2.23;0.70;;;13.80;99.90;;;;;;5097899;28;20477;-80
2023/11/07 11:25:51;;;;;;;1.87;0.90;;;13.70;99.90;;;;;;5098143;28;20396;-79
2023/11/07 11:28:17;;;;;;;2.50;0.80;;;13.40;99.90;;;;;;5087139;28;20415;-80
2023/11/07 11:30:53;;;;;;;2.63;0.90;;;13.70;99.90;;;;;;5060481;28;20431;-80
2023/11/07 11:33:26;;;;;;;4.47;1.00;;;13.60;99.90;;;;;;5076836;28;20181;-80
2023/11/07 11:35:52;;;;;;;1.53;0.93;;;13.60;99.90;;;;;;5077525;28;20388;-79
2023/11/07 11:38:24;;;;;;;5.73;1.00;;;13.60;99.90;;;;;;5075535;28;20419;-79
2023/11/07 11:40:54;;;;;;;2.40;0.97;;;13.70;99.90;;;;;;5060169;28;20981;-79
2023/11/07 11:43:22;;;;;;;1.20;0.90;;;13.60;99.90;;;;;;5077188;28;20965;-80
2023/11/07 11:45:49;;;;;;;2.20;0.90;;;13.60;99.90;;;;;;5081364;28;20415;-80
2023/11/07 11:48:15;;;;;;;3.30;1.20;;;14.00;99.90;;;;;;5094735;28;20410;-80
2023/11/07 11:50:43;;;;;;;2.70;0.80;;;13.70;99.90;;;;;;5079253;28;20410;-80
2023/11/07 11:53:09;;;;;;;1.40;0.80;;;13.60;99.90;;;;;;5095936;28;20423;-80
2023/11/07 11:55:59;;;;;;;1.57;0.93;;;13.40;99.90;;;;;;5096639;28;20830;-80
2023/11/07 11:58:30;;;;;;;1.37;0.90;;;13.20;99.90;;;;;;5096040;28;20433;-79
2023/11/07 12:00:57;;;;;;;0.70;0.53;;;13.00;99.90;;;;;;5106399;28;20551;-79
2023/11/07 12:03:24;;;;;;;4.23;0.70;;;12.90;99.90;;;;;;5117664;28;20449;-79
2023/11/07 12:06:04;;;;;;;1.47;0.80;;;13.10;99.90;;;;;;5117986;28;20409;-79
2023/11/07 12:08:42;;;;;;;1.00;0.60;;;13.40;99.90;;;;;;5117965;28;20400;-80
2023/11/07 12:11:09;;;;;;;1.57;0.80;;;13.60;99.90;;;;;;5117442;28;20386;-80
2023/11/07 12:13:35;;;;;;;1.90;0.80;;;13.20;99.90;;;;;;5099486;28;20421;-80
2023/11/07 12:16:15;;;;;;;3.60;1.17;;;13.00;99.90;;;;;;5117406;28;20413;-80
2023/11/07 12:18:42;;;;;;;3.17;0.75;;;12.40;99.90;;;;;;5117417;28;20409;-80
2023/11/07 12:21:11;;;;;;;2.65;0.80;;;11.80;99.90;;;;;;5117626;28;20179;-78
2023/11/07 12:23:36;;;;;;;3.38;1.05;;;11.50;99.90;;;;;;5118198;28;20215;-78
2023/11/07 12:26:03;;;;;;;1.20;0.80;;;11.40;99.90;;;;;;5117022;28;20321;-79
2023/11/07 12:28:28;;;;;;;2.10;0.80;;;11.60;99.90;;;;;;5099088;28;20175;-78
2023/11/07 12:30:55;;;;;;;4.87;1.20;;;11.80;99.90;;;;;;5098836;28;20198;-78
2023/11/07 12:33:21;;;;;;;2.90;0.90;;;11.90;99.90;;;;;;5117267;28;20188;-78
2023/11/07 12:35:54;;;;;;;2.17;0.90;;;11.90;99.90;;;;;;5117187;28;20199;-78
2023/11/07 12:38:20;;;;;;;1.80;0.70;;;12.10;99.90;;;;;;5099722;28;20580;-78
2023/11/07 12:40:47;;;;;;;2.15;0.85;;;12.20;99.90;;;;;;5117296;28;20421;-78
2023/11/07 12:43:15;;;;;;;1.23;0.65;;;12.20;99.90;;;;;;5099335;28;20233;-78
2023/11/07 12:45:46;;;;;;;4.60;0.95;;;12.10;99.90;;;;;;5117880;28;20635;-78
2023/11/07 12:48:13;;;;;;;1.55;0.63;;;12.20;99.90;;;;;;5081854;28;20179;-78
2023/11/07 12:50:46;;;;;;;5.80;1.53;;;12.10;99.90;;;;;;5099657;28;20525;-78
2023/11/07 12:53:15;;;;;;;3.80;1.00;;;12.30;99.90;;;;;;5117629;28;20519;-78